createdAt,value
2022-12-31T00:00:39.817Z,99384.34
2022-12-31T00:03:09.882Z,99380.88
2022-12-31T00:05:37.965Z,99382.59
2022-12-31T00:08:05.879Z,99388.69
2022-12-31T00:10:39.908Z,99384.34
2022-12-31T00:13:10.542Z,99394.72
2022-12-31T00:15:39.312Z,99386.09
2022-12-31T00:18:08.310Z,99388.72
2022-12-31T00:20:40.946Z,99386.97
2022-12-31T00:23:10.035Z,99380.88
2022-12-31T00:25:38.259Z,99377.44
2022-12-31T00:28:06.058Z,99381.78
2022-12-31T00:30:35.697Z,99369.63
2022-12-31T00:33:03.637Z,99371.31
2022-12-31T00:35:31.313Z,99373.91
2022-12-31T00:37:59.123Z,99360.91
2022-12-31T00:40:29.046Z,99364.38
2022-12-31T00:42:56.755Z,99370.47
2022-12-31T00:45:24.483Z,99372.22
2022-12-31T00:47:53.646Z,99364.38
2022-12-31T00:50:21.358Z,99362.59
2022-12-31T00:52:49.053Z,99360.06
2022-12-31T00:55:17.010Z,99356.53
2022-12-31T00:57:44.770Z,99359.09
2022-12-31T01:00:14.629Z,99362.63
2022-12-31T01:02:42.562Z,99354.81
2022-12-31T01:05:11.747Z,99356.53
2022-12-31T01:07:39.512Z,99357.38
2022-12-31T01:10:08.871Z,99356.50
2022-12-31T01:12:36.971Z,99358.25
2022-12-31T01:15:06.447Z,99348.69
2022-12-31T01:17:34.545Z,99357.34
2022-12-31T01:20:02.284Z,99359.91
2022-12-31T01:22:31.761Z,99358.25
2022-12-31T01:24:59.521Z,99354.72
2022-12-31T01:27:27.291Z,99357.38
2022-12-31T01:29:55.942Z,99358.25
2022-12-31T01:32:23.608Z,99349.53
2022-12-31T01:34:51.302Z,99368.63
2022-12-31T01:37:19.154Z,99376.47
2022-12-31T01:39:48.510Z,99372.13
2022-12-31T01:42:16.240Z,99368.66
2022-12-31T01:44:52.596Z,99363.38
2022-12-31T01:47:39.585Z,99362.50
2022-12-31T01:50:15.599Z,99362.53
2022-12-31T01:52:48.682Z,99349.47
2022-12-31T01:55:24.165Z,99362.63
2022-12-31T01:57:57.005Z,99353.00
2022-12-31T02:00:25.141Z,99354.72
2022-12-31T02:02:53.276Z,99363.41
2022-12-31T02:05:31.811Z,99349.47
2022-12-31T02:08:00.033Z,99350.38
2022-12-31T02:10:29.172Z,99359.94
2022-12-31T02:12:57.539Z,99346.97
2022-12-31T02:15:45.562Z,99343.56
2022-12-31T02:18:29.002Z,99340.03
2022-12-31T02:21:29.860Z,99339.16
2022-12-31T02:24:32.434Z,99329.66
2022-12-31T02:27:09.040Z,99342.75
2022-12-31T02:30:09.394Z,99333.19
2022-12-31T02:32:50.400Z,99325.34
2022-12-31T02:35:28.683Z,99332.28
2022-12-31T02:38:04.213Z,99347.84
2022-12-31T02:40:35.551Z,99350.50
2022-12-31T02:43:03.895Z,99349.66
2022-12-31T02:45:38.953Z,99344.38
2022-12-31T02:48:29.325Z,99345.28
2022-12-31T02:51:12.756Z,99353.09
2022-12-31T02:54:19.726Z,99337.44
2022-12-31T02:57:04.229Z,99344.44
2022-12-31T02:59:59.278Z,99335.81
2022-12-31T03:02:33.843Z,99341.91
2022-12-31T03:05:03.701Z,99330.63
2022-12-31T03:07:33.161Z,99337.56
2022-12-31T03:10:01.487Z,99327.97
2022-12-31T03:12:48.124Z,99350.56
2022-12-31T03:15:20.630Z,99377.56
2022-12-31T03:17:54.811Z,99407.91
2022-12-31T03:20:45.506Z,99419.19
2022-12-31T03:23:17.591Z,99422.69
2022-12-31T03:25:46.226Z,99423.56
2022-12-31T03:28:17.521Z,99411.41
2022-12-31T03:30:50.048Z,99372.31
2022-12-31T03:33:20.814Z,99338.38
2022-12-31T03:35:50.164Z,99313.19
2022-12-31T03:38:19.298Z,99313.06
2022-12-31T03:40:50.182Z,99313.00
2022-12-31T03:43:19.579Z,99326.88
2022-12-31T03:45:51.370Z,99352.94
2022-12-31T03:48:22.650Z,99371.25
2022-12-31T03:50:51.088Z,99378.22
2022-12-31T03:53:19.194Z,99385.19
2022-12-31T03:55:51.894Z,99375.56
2022-12-31T03:58:19.856Z,99369.47
2022-12-31T04:00:47.717Z,99376.44
2022-12-31T04:03:15.648Z,99382.56
2022-12-31T04:05:44.866Z,99384.31
2022-12-31T04:08:12.681Z,99375.59
2022-12-31T04:10:40.464Z,99372.19
2022-12-31T04:13:08.188Z,99373.94
2022-12-31T04:15:35.875Z,99370.50
2022-12-31T04:18:03.959Z,99350.50
2022-12-31T04:20:31.705Z,99346.16
2022-12-31T04:23:00.863Z,99357.47
2022-12-31T04:25:28.655Z,99365.31
2022-12-31T04:27:56.478Z,99356.63
2022-12-31T04:30:24.308Z,99356.63
2022-12-31T04:32:52.102Z,99361.88
2022-12-31T04:35:20.456Z,99358.41
2022-12-31T04:37:48.439Z,99369.69
2022-12-31T04:40:17.735Z,99368.84
2022-12-31T04:42:45.597Z,99349.69
2022-12-31T04:45:13.318Z,99356.59
2022-12-31T04:47:41.123Z,99355.72
2022-12-31T04:50:09.534Z,99356.63
2022-12-31T04:52:42.676Z,99351.38
2022-12-31T04:55:11.637Z,99350.50
2022-12-31T04:57:41.487Z,99357.44
2022-12-31T05:00:10.929Z,99353.09
2022-12-31T05:02:39.016Z,99358.34
2022-12-31T05:05:08.208Z,99368.81
2022-12-31T05:07:36.094Z,99361.88
2022-12-31T05:10:05.467Z,99360.16
2022-12-31T05:12:33.459Z,99358.44
2022-12-31T05:15:02.740Z,99361.06
2022-12-31T05:17:30.488Z,99367.13
2022-12-31T05:19:58.438Z,99357.50
2022-12-31T05:22:29.058Z,99343.59
2022-12-31T05:24:58.305Z,99347.00
2022-12-31T05:27:27.411Z,99327.94
2022-12-31T05:29:55.142Z,99335.78
2022-12-31T05:32:24.472Z,99343.66
2022-12-31T05:34:53.584Z,99335.91
2022-12-31T05:37:21.406Z,99351.56
2022-12-31T05:39:49.408Z,99349.88
2022-12-31T05:42:17.387Z,99360.28
2022-12-31T05:44:45.141Z,99373.34
2022-12-31T05:47:13.118Z,99375.94
2022-12-31T05:49:42.406Z,99359.44
2022-12-31T05:52:10.197Z,99373.34
2022-12-31T05:54:37.920Z,99381.16
2022-12-31T05:57:06.629Z,99385.50
2022-12-31T05:59:35.364Z,99382.91
2022-12-31T06:02:03.111Z,99386.34
2022-12-31T06:04:30.879Z,99385.47
2022-12-31T06:07:00.143Z,99396.75
2022-12-31T06:09:27.984Z,99400.25
2022-12-31T06:11:56.001Z,99401.09
2022-12-31T06:14:23.888Z,99405.44
2022-12-31T06:16:51.594Z,99402.81
2022-12-31T06:19:19.411Z,99421.00
2022-12-31T06:21:47.441Z,99421.88
2022-12-31T06:24:16.884Z,99430.50
2022-12-31T06:26:44.704Z,99422.75
2022-12-31T06:29:12.575Z,99427.94
2022-12-31T06:31:40.317Z,99422.72
2022-12-31T06:34:08.152Z,99427.94
2022-12-31T06:36:35.879Z,99440.00
2022-12-31T06:39:03.915Z,99435.69
2022-12-31T06:41:33.252Z,99451.31
2022-12-31T06:44:01.002Z,99464.31
2022-12-31T06:46:28.827Z,99468.63
2022-12-31T06:48:56.729Z,99456.50
2022-12-31T06:51:25.282Z,99443.44
2022-12-31T06:53:53.193Z,99455.59
2022-12-31T06:56:31.321Z,99459.13
2022-12-31T06:59:04.911Z,99461.72
2022-12-31T07:01:49.284Z,99446.94
2022-12-31T07:05:21.246Z,99460.81
2022-12-31T07:08:05.969Z,99454.75
2022-12-31T07:10:48.238Z,99441.75
2022-12-31T07:13:50.216Z,99447.00
2022-12-31T07:16:45.714Z,99453.06
2022-12-31T07:19:30.266Z,99448.69
2022-12-31T07:21:59.832Z,99451.28
2022-12-31T07:24:28.664Z,99454.75
2022-12-31T07:27:20.547Z,99458.19
2022-12-31T07:30:03.163Z,99465.13
2022-12-31T07:32:59.220Z,99469.50
2022-12-31T07:35:43.416Z,99460.84
2022-12-31T07:38:25.853Z,99453.03
2022-12-31T07:41:09.841Z,99450.34
2022-12-31T07:43:56.130Z,99452.09
2022-12-31T07:46:31.244Z,99452.00
2022-12-31T07:49:01.818Z,99453.75
2022-12-31T07:51:30.467Z,99461.47
2022-12-31T07:53:58.375Z,99451.91
2022-12-31T07:56:26.201Z,99452.66
2022-12-31T07:59:13.693Z,99456.09
2022-12-31T08:01:49.916Z,99455.22
2022-12-31T08:04:31.420Z,99462.13
2022-12-31T08:07:12.150Z,99451.59
2022-12-31T08:09:52.107Z,99463.72
2022-12-31T08:12:23.302Z,99472.38
2022-12-31T08:14:51.761Z,99461.09
2022-12-31T08:17:20.651Z,99457.53
2022-12-31T08:19:51.196Z,99459.22
2022-12-31T08:23:04.820Z,99447.00
2022-12-31T08:25:56.885Z,99433.88
2022-12-31T08:28:46.002Z,99437.34
2022-12-31T08:31:19.844Z,99447.75
2022-12-31T08:34:05.544Z,99440.72
2022-12-31T08:36:48.910Z,99419.78
2022-12-31T08:39:37.116Z,99374.47
2022-12-31T08:42:17.195Z,99419.66
2022-12-31T08:44:55.647Z,99443.94
2022-12-31T08:47:38.719Z,99434.31
2022-12-31T08:50:14.019Z,99411.59
2022-12-31T08:52:44.239Z,99431.53
2022-12-31T08:55:16.409Z,99427.19
2022-12-31T08:57:55.408Z,99429.75
2022-12-31T09:00:24.193Z,99443.66
2022-12-31T09:03:22.141Z,99449.69
2022-12-31T09:06:02.265Z,99431.56
2022-12-31T09:08:47.132Z,99423.81
2022-12-31T09:11:24.046Z,99423.81
2022-12-31T09:14:16.936Z,99440.31
2022-12-31T09:16:59.544Z,99428.19
2022-12-31T09:19:27.566Z,99429.03
2022-12-31T09:21:56.489Z,99438.56
2022-12-31T09:24:26.580Z,99431.56
2022-12-31T09:27:05.937Z,99438.47
2022-12-31T09:29:56.123Z,99424.44
2022-12-31T09:32:39.268Z,99430.44
2022-12-31T09:35:19.299Z,99443.38
2022-12-31T09:37:50.689Z,99440.69
2022-12-31T09:40:49.325Z,99427.59
2022-12-31T09:44:01.698Z,99467.53
2022-12-31T09:47:28.614Z,99491.97
2022-12-31T09:50:40.857Z,99487.53
2022-12-31T09:53:38.338Z,99504.00
2022-12-31T09:56:17.371Z,99494.34
2022-12-31T09:59:00.322Z,99536.97
2022-12-31T10:01:46.448Z,99558.63
2022-12-31T10:04:48.394Z,99586.81
2022-12-31T10:07:35.438Z,99619.50
2022-12-31T10:10:14.156Z,99630.91
2022-12-31T10:13:33.946Z,99633.63
2022-12-31T10:16:49.300Z,99640.59
2022-12-31T10:19:52.322Z,99624.00
2022-12-31T10:22:59.966Z,99637.03
2022-12-31T10:25:48.409Z,99630.88
2022-12-31T10:28:37.011Z,99631.72
2022-12-31T10:31:16.061Z,99633.31
2022-12-31T10:33:53.638Z,99610.56
2022-12-31T10:36:32.265Z,99617.38
2022-12-31T10:39:20.465Z,99609.34
2022-12-31T10:42:38.375Z,99615.28
2022-12-31T10:45:40.618Z,99620.44
2022-12-31T10:49:23.164Z,99615.56
2022-12-31T10:52:30.623Z,99653.38
2022-12-31T10:55:48.121Z,99657.94
2022-12-31T10:58:57.160Z,99650.03
2022-12-31T11:01:48.121Z,99662.25
2022-12-31T11:04:59.425Z,99646.56
2022-12-31T11:08:02.700Z,99643.88
2022-12-31T11:11:09.885Z,99636.06
2022-12-31T11:14:20.376Z,99622.03
2022-12-31T11:17:12.554Z,99615.91
2022-12-31T11:19:59.030Z,99624.41
2022-12-31T11:22:56.276Z,99613.94
2022-12-31T11:25:40.075Z,99610.38
2022-12-31T11:28:45.445Z,99590.22
2022-12-31T11:31:34.757Z,99597.16
2022-12-31T11:34:25.511Z,99621.56
2022-12-31T11:37:18.120Z,99599.88
2022-12-31T11:40:05.056Z,99605.06
2022-12-31T11:42:50.274Z,99599.72
2022-12-31T11:45:50.348Z,99597.91
2022-12-31T11:48:32.949Z,99606.44
2022-12-31T11:51:30.870Z,99603.78
2022-12-31T11:54:37.186Z,99602.88
2022-12-31T11:57:20.496Z,99601.03
2022-12-31T11:59:59.240Z,99595.72
2022-12-31T12:02:32.901Z,99615.03
2022-12-31T12:05:10.675Z,99615.78
2022-12-31T12:07:40.593Z,99608.06
2022-12-31T12:10:23.861Z,99600.28
2022-12-31T12:12:53.540Z,99612.34
2022-12-31T12:15:26.563Z,99601.94
2022-12-31T12:17:59.371Z,99602.78
2022-12-31T12:20:33.082Z,99566.19
2022-12-31T12:23:17.267Z,99607.97
2022-12-31T12:25:45.275Z,99593.16
2022-12-31T12:28:23.913Z,99613.97
2022-12-31T12:31:00.784Z,99606.13
2022-12-31T12:33:40.630Z,99586.91
2022-12-31T12:36:11.505Z,99598.28
2022-12-31T12:38:42.719Z,99596.38
2022-12-31T12:41:20.504Z,99599.75
2022-12-31T12:43:49.707Z,99587.38
2022-12-31T12:46:27.770Z,99602.03
2022-12-31T12:49:06.448Z,99596.56
2022-12-31T12:52:04.003Z,99594.75
2022-12-31T12:55:12.182Z,99593.91
2022-12-31T12:58:00.223Z,99603.41
2022-12-31T13:00:41.554Z,99519.66
2022-12-31T13:04:14.721Z,99612.16
2022-12-31T13:06:53.272Z,99605.97
2022-12-31T13:09:42.893Z,99607.75
2022-12-31T13:12:24.579Z,99607.91
2022-12-31T13:15:02.517Z,99577.69
2022-12-31T13:17:59.957Z,99633.53
2022-12-31T13:20:41.500Z,99632.88
2022-12-31T13:23:22.699Z,99647.13
2022-12-31T13:26:07.579Z,99650.06
2022-12-31T13:28:42.471Z,99644.13
2022-12-31T13:31:17.846Z,99647.81
2022-12-31T13:33:50.544Z,99629.63
2022-12-31T13:36:23.657Z,99641.81
2022-12-31T13:38:54.519Z,99641.13
2022-12-31T13:41:33.214Z,99654.25
2022-12-31T13:44:13.576Z,99642.09
2022-12-31T13:46:49.043Z,99657.81
2022-12-31T13:49:24.265Z,99654.34
2022-12-31T13:52:01.081Z,99654.34
2022-12-31T13:54:41.142Z,99656.03
2022-12-31T13:57:23.734Z,99637.78
2022-12-31T14:00:01.553Z,99631.63
2022-12-31T14:02:50.480Z,99635.94
2022-12-31T14:05:29.406Z,99666.31
2022-12-31T14:08:00.717Z,99665.41
2022-12-31T14:10:43.008Z,99626.25
2022-12-31T14:13:41.962Z,99658.38
2022-12-31T14:16:24.778Z,99660.13
2022-12-31T14:19:06.555Z,99674.13
2022-12-31T14:21:47.362Z,99673.34
2022-12-31T14:24:33.081Z,99670.72
2022-12-31T14:27:08.637Z,99657.63
2022-12-31T14:29:45.358Z,99649.81
2022-12-31T14:32:57.513Z,99663.75
2022-12-31T14:35:46.346Z,99661.13
2022-12-31T14:38:35.311Z,99655.88
2022-12-31T14:41:24.173Z,99644.56
2022-12-31T14:44:14.982Z,99638.44
2022-12-31T14:47:07.737Z,99659.28
2022-12-31T14:49:51.925Z,99645.38
2022-12-31T14:52:23.876Z,99660.16
2022-12-31T14:55:03.577Z,99652.38
2022-12-31T14:58:01.435Z,99669.69
2022-12-31T15:00:32.560Z,99657.50
2022-12-31T15:03:07.503Z,99667.91
2022-12-31T15:05:38.195Z,99661.78
2022-12-31T15:08:25.334Z,99661.72
2022-12-31T15:11:18.136Z,99653.88
2022-12-31T15:14:16.175Z,99652.09
2022-12-31T15:16:57.738Z,99657.31
2022-12-31T15:20:16.922Z,99675.53
2022-12-31T15:22:48.783Z,99676.34
2022-12-31T15:25:27.007Z,99668.44
2022-12-31T15:27:57.626Z,99679.81
2022-12-31T15:30:40.601Z,99683.22
2022-12-31T15:33:19.977Z,99691.84
2022-12-31T15:35:52.759Z,99684.00
2022-12-31T15:38:35.007Z,99683.06
2022-12-31T15:41:24.619Z,99670.03
2022-12-31T15:44:00.953Z,99698.72
2022-12-31T15:46:36.723Z,99696.03
2022-12-31T15:49:15.640Z,99703.88
2022-12-31T15:51:51.363Z,99696.88
2022-12-31T15:54:27.627Z,99703.75
2022-12-31T15:56:55.477Z,99695.00
2022-12-31T15:59:26.047Z,99688.91
2022-12-31T16:01:56.946Z,99697.63
2022-12-31T16:04:28.641Z,99695.09
2022-12-31T16:07:03.317Z,99696.75
2022-12-31T16:09:35.799Z,99695.94
2022-12-31T16:12:11.919Z,99700.44
2022-12-31T16:14:46.097Z,99703.91
2022-12-31T16:17:28.177Z,99690.88
2022-12-31T16:19:58.504Z,99710.94
2022-12-31T16:22:35.809Z,99706.59
2022-12-31T16:25:30.236Z,99706.75
2022-12-31T16:27:58.321Z,99715.50
2022-12-31T16:30:30.002Z,99705.03
2022-12-31T16:33:03.141Z,99709.44
2022-12-31T16:35:33.594Z,99694.66
2022-12-31T16:38:14.608Z,99685.91
2022-12-31T16:40:58.715Z,99695.53
2022-12-31T16:43:29.370Z,99706.81
2022-12-31T16:46:07.033Z,99695.56
2022-12-31T16:48:35.976Z,99703.31
2022-12-31T16:51:05.373Z,99693.75
2022-12-31T16:53:38.110Z,99690.28
2022-12-31T16:56:09.097Z,99696.38
2022-12-31T16:58:42.255Z,99695.44
2022-12-31T17:01:18.260Z,99703.28
2022-12-31T17:03:53.152Z,99698.09
2022-12-31T17:06:23.118Z,99689.25
2022-12-31T17:09:13.809Z,99683.22
2022-12-31T17:11:50.755Z,99661.44
2022-12-31T17:14:23.144Z,99670.97
2022-12-31T17:17:02.560Z,99648.25
2022-12-31T17:19:40.514Z,99664.03
2022-12-31T17:22:16.185Z,99655.25
2022-12-31T17:24:48.725Z,99656.13
2022-12-31T17:27:17.779Z,99649.16
2022-12-31T17:29:45.579Z,99653.34
2022-12-31T17:32:31.119Z,99648.06
2022-12-31T17:34:58.993Z,99650.75
2022-12-31T17:37:29.946Z,99655.13
2022-12-31T17:40:40.568Z,99648.06
2022-12-31T17:42:50.274Z,99648.06
2022-12-31T17:45:21.651Z,99655.97
2022-12-31T17:47:53.643Z,99642.84
2022-12-31T17:50:24.902Z,99642.84
2022-12-31T17:52:57.178Z,99640.28
2022-12-31T17:55:28.799Z,99649.78
2022-12-31T17:57:58.193Z,99643.69
2022-12-31T18:00:27.658Z,99635.00
2022-12-31T18:02:55.647Z,99652.38
2022-12-31T18:05:24.673Z,99648.84
2022-12-31T18:07:53.368Z,99639.25
2022-12-31T18:10:25.286Z,99640.19
2022-12-31T18:12:54.625Z,99630.66
2022-12-31T18:15:24.691Z,99651.50
2022-12-31T18:17:52.794Z,99648.06
2022-12-31T18:20:20.842Z,99649.91
2022-12-31T18:22:48.853Z,99649.91
2022-12-31T18:25:21.389Z,99638.59
2022-12-31T18:27:51.458Z,99634.28
2022-12-31T18:30:20.702Z,99642.13
2022-12-31T18:32:48.744Z,99657.81
2022-12-31T18:36:06.482Z,99645.63
2022-12-31T18:38:12.740Z,99654.34
2022-12-31T18:40:44.453Z,99638.78
2022-12-31T18:43:16.464Z,99655.16
2022-12-31T18:45:48.686Z,99665.56
2022-12-31T18:48:17.788Z,99649.97
2022-12-31T18:50:47.229Z,99633.47
2022-12-31T18:53:20.112Z,99643.88
2022-12-31T18:55:51.678Z,99643.06
2022-12-31T18:58:20.232Z,99656.09
2022-12-31T19:00:51.354Z,99639.50
2022-12-31T19:03:22.374Z,99658.75
2022-12-31T19:05:51.992Z,99658.72
2022-12-31T19:08:22.179Z,99677.88
2022-12-31T19:10:52.522Z,99665.78
2022-12-31T19:13:21.078Z,99664.03
2022-12-31T19:15:53.019Z,99651.84
2022-12-31T19:18:20.977Z,99657.97
2022-12-31T19:20:48.931Z,99651.00
2022-12-31T19:23:20.602Z,99657.84
2022-12-31T19:25:50.108Z,99655.19
2022-12-31T19:28:21.087Z,99658.75
2022-12-31T19:30:51.071Z,99636.16
2022-12-31T19:33:19.645Z,99656.22
2022-12-31T19:35:47.638Z,99665.94
2022-12-31T19:38:20.466Z,99659.84
2022-12-31T19:40:49.142Z,99665.94
2022-12-31T19:43:20.370Z,99672.91
2022-12-31T19:45:51.617Z,99670.31
2022-12-31T19:48:24.770Z,99667.63
2022-12-31T19:50:58.233Z,99672.88
2022-12-31T19:53:27.707Z,99674.75
2022-12-31T19:55:55.449Z,99676.56
2022-12-31T19:58:26.178Z,99676.47
2022-12-31T20:01:02.919Z,99679.97
2022-12-31T20:03:32.464Z,99686.09
2022-12-31T20:06:02.961Z,99680.00
2022-12-31T20:08:31.085Z,99671.38
2022-12-31T20:10:58.999Z,99690.53
2022-12-31T20:13:26.998Z,99691.38
2022-12-31T20:15:56.309Z,99692.22
2022-12-31T20:18:24.059Z,99690.41
2022-12-31T20:20:55.891Z,99700.75
2022-12-31T20:23:24.060Z,99707.72
2022-12-31T20:25:59.287Z,99702.34
2022-12-31T20:28:27.798Z,99713.72
2022-12-31T20:30:56.974Z,99716.22
2022-12-31T20:33:24.772Z,99730.16
2022-12-31T20:35:52.628Z,99722.22
2022-12-31T20:38:20.472Z,99716.13
2022-12-31T20:40:48.193Z,99726.59
2022-12-31T20:43:16.031Z,99730.94
2022-12-31T20:45:44.664Z,99730.78
2022-12-31T20:48:13.749Z,99727.34
2022-12-31T20:50:41.493Z,99734.25
2022-12-31T20:53:09.175Z,99724.63
2022-12-31T20:55:38.015Z,99726.56
2022-12-31T20:58:06.245Z,99731.81
2022-12-31T21:00:34.057Z,99742.28
2022-12-31T21:03:14.443Z,99743.22
2022-12-31T21:05:54.323Z,99736.31
2022-12-31T21:08:22.424Z,99728.47
2022-12-31T21:10:50.987Z,99723.19
2022-12-31T21:13:22.875Z,99722.34
2022-12-31T21:15:52.556Z,99728.44
2022-12-31T21:18:22.636Z,99734.47
2022-12-31T21:20:53.294Z,99716.28
2022-12-31T21:23:21.073Z,99740.66
2022-12-31T21:25:50.274Z,99722.44
2022-12-31T21:28:18.194Z,99749.38
2022-12-31T21:30:46.108Z,99743.25
2022-12-31T21:33:13.878Z,99744.19
2022-12-31T21:35:45.672Z,99751.19
2022-12-31T21:38:21.477Z,99750.38
2022-12-31T21:40:49.667Z,99750.34
2022-12-31T21:43:17.586Z,99752.88
2022-12-31T21:45:46.042Z,99747.56
2022-12-31T21:48:21.377Z,99754.63
2022-12-31T21:50:51.373Z,99746.75
2022-12-31T21:53:27.919Z,99752.78
2022-12-31T21:56:09.077Z,99758.03
2022-12-31T21:58:39.624Z,99753.72
2022-12-31T22:01:33.946Z,99744.16
2022-12-31T22:04:02.088Z,99765.03
2022-12-31T22:06:30.599Z,99774.69
2022-12-31T22:08:59.714Z,99752.94
2022-12-31T22:11:28.534Z,99763.34
2022-12-31T22:13:56.434Z,99764.25
2022-12-31T22:16:24.345Z,99765.03
2022-12-31T22:18:55.704Z,99765.13
2022-12-31T22:21:26.594Z,99761.56
2022-12-31T22:23:58.692Z,99781.56
2022-12-31T22:26:29.288Z,99778.94
2022-12-31T22:28:59.271Z,99778.00
2022-12-31T22:31:32.595Z,99781.44
2022-12-31T22:34:00.656Z,99788.41
2022-12-31T22:36:28.401Z,99793.66
2022-12-31T22:38:58.470Z,99811.13
2022-12-31T22:41:28.901Z,99791.03
2022-12-31T22:44:04.212Z,99796.19
2022-12-31T22:46:34.337Z,99784.84
2022-12-31T22:49:04.353Z,99790.06
2022-12-31T22:51:55.753Z,99791.06
2022-12-31T22:54:20.776Z,99801.56
2022-12-31T22:56:50.024Z,99797.13
2022-12-31T22:59:17.839Z,99813.75
2022-12-31T23:01:45.789Z,99803.31
2022-12-31T23:04:13.882Z,99831.19
2022-12-31T23:06:44.747Z,99825.09
2022-12-31T23:09:34.502Z,99827.72
2022-12-31T23:12:06.132Z,99819.06
2022-12-31T23:14:53.816Z,99832.94
2022-12-31T23:17:44.068Z,99833.03
2022-12-31T23:20:36.508Z,99829.53
2022-12-31T23:23:09.696Z,99803.44
2022-12-31T23:25:41.639Z,99826.94
2022-12-31T23:28:14.242Z,99819.09
2022-12-31T23:30:43.428Z,99812.06
2022-12-31T23:33:15.763Z,99825.03
2022-12-31T23:35:44.324Z,99803.09
2022-12-31T23:38:13.554Z,99816.22
2022-12-31T23:40:41.328Z,99806.50
2022-12-31T23:43:20.421Z,99812.53
2022-12-31T23:45:49.203Z,99811.72
2022-12-31T23:48:17.028Z,99819.47
2022-12-31T23:50:50.848Z,99804.63
2022-12-31T23:53:20.956Z,99822.03
2022-12-31T23:55:48.871Z,99816.78
2022-12-31T23:58:17.999Z,99811.56
